createdAt,value
2023-03-21T00:01:00.785Z,100420.53
2023-03-21T00:03:51.604Z,100418.25
2023-03-21T00:06:41.610Z,100412.88
2023-03-21T00:09:30.372Z,100401.22
2023-03-21T00:12:21.065Z,100387.75
2023-03-21T00:15:11.549Z,100407.84
2023-03-21T00:18:03.597Z,100327.22
2023-03-21T00:21:29.298Z,100391.84
2023-03-21T00:24:09.610Z,100399.81
2023-03-21T00:27:10.724Z,100388.00
2023-03-21T00:30:07.873Z,100385.91
2023-03-21T00:32:57.029Z,100388.84
2023-03-21T00:36:02.500Z,100389.69
2023-03-21T00:38:53.482Z,100378.97
2023-03-21T00:41:43.635Z,100379.59
2023-03-21T00:44:36.688Z,100376.31
2023-03-21T00:47:25.986Z,100369.66
2023-03-21T00:50:14.811Z,100374.78
2023-03-21T00:53:03.321Z,100371.44
2023-03-21T00:55:51.867Z,100366.72
2023-03-21T00:58:41.690Z,100361.56
2023-03-21T01:01:34.509Z,100363.03
2023-03-21T01:04:26.411Z,100362.00
2023-03-21T01:07:14.995Z,100359.28
2023-03-21T01:10:03.765Z,100356.31
2023-03-21T01:12:52.158Z,100348.69
2023-03-21T01:15:46.882Z,100362.06
2023-03-21T01:18:37.176Z,100354.69
2023-03-21T01:21:25.707Z,100363.56
2023-03-21T01:24:14.212Z,100354.03
2023-03-21T01:27:03.490Z,100351.91
2023-03-21T01:29:52.012Z,100350.66
2023-03-21T01:32:41.856Z,100353.91
2023-03-21T01:35:37.438Z,100344.22
2023-03-21T01:38:29.671Z,100284.22
2023-03-21T01:41:26.223Z,100351.78
2023-03-21T01:44:18.334Z,100336.38
2023-03-21T01:47:11.988Z,100336.56
2023-03-21T01:50:03.438Z,100330.19
2023-03-21T01:52:51.999Z,100334.53
2023-03-21T01:55:40.947Z,100333.31
2023-03-21T01:58:29.967Z,100339.31
2023-03-21T02:01:18.790Z,100336.63
2023-03-21T02:04:09.153Z,100318.41
2023-03-21T02:07:01.928Z,100330.75
2023-03-21T02:09:51.253Z,100327.19
2023-03-21T02:12:39.744Z,100321.78
2023-03-21T02:15:28.295Z,100314.84
2023-03-21T02:18:24.502Z,100320.19
2023-03-21T02:21:39.829Z,100311.97
2023-03-21T02:25:04.205Z,100302.66
2023-03-21T02:27:59.651Z,100312.22
2023-03-21T02:31:08.437Z,100312.28
2023-03-21T02:34:24.062Z,100303.88
2023-03-21T02:37:23.560Z,100304.69
2023-03-21T02:40:23.764Z,100302.63
2023-03-21T02:43:23.418Z,100299.53
2023-03-21T02:46:16.698Z,100303.44
2023-03-21T02:49:09.387Z,100302.44
2023-03-21T02:52:05.469Z,100300.13
2023-03-21T02:55:06.005Z,100292.41
2023-03-21T02:57:56.477Z,100303.75
2023-03-21T03:00:45.353Z,100302.84
2023-03-21T03:03:36.894Z,100287.28
2023-03-21T03:06:27.796Z,100279.00
2023-03-21T03:09:24.245Z,100285.66
2023-03-21T03:12:23.604Z,100237.38
2023-03-21T03:15:21.946Z,100288.75
2023-03-21T03:18:13.530Z,100289.97
2023-03-21T03:21:05.276Z,100285.00
2023-03-21T03:23:55.828Z,100282.97
2023-03-21T03:26:48.530Z,100277.34
2023-03-21T03:29:40.443Z,100289.88
2023-03-21T03:32:33.128Z,100274.03
2023-03-21T03:35:23.735Z,100274.63
2023-03-21T03:38:14.146Z,100279.59
2023-03-21T03:41:04.427Z,100286.34
2023-03-21T03:43:54.932Z,100274.13
2023-03-21T03:46:48.749Z,100278.00
2023-03-21T03:49:39.403Z,100279.66
2023-03-21T03:52:30.462Z,100272.84
2023-03-21T03:55:21.575Z,100278.00
2023-03-21T03:58:21.120Z,100276.06
2023-03-21T04:01:11.641Z,100277.28
2023-03-21T04:04:12.569Z,100284.22
2023-03-21T04:07:03.464Z,100274.69
2023-03-21T04:09:52.050Z,100274.25
2023-03-21T04:12:40.534Z,100280.16
2023-03-21T04:15:29.029Z,100265.97
2023-03-21T04:18:17.551Z,100277.47
2023-03-21T04:21:10.713Z,100268.63
2023-03-21T04:23:59.673Z,100267.59
2023-03-21T04:26:48.413Z,100262.63
2023-03-21T04:29:37.249Z,100270.94
2023-03-21T04:32:26.422Z,100267.97
2023-03-21T04:35:15.396Z,100269.00
2023-03-21T04:38:05.532Z,100266.69
2023-03-21T04:40:54.186Z,100267.06
2023-03-21T04:43:42.698Z,100268.78
2023-03-21T04:46:31.436Z,100277.75
2023-03-21T04:49:19.917Z,100272.59
2023-03-21T04:52:08.454Z,100272.75
2023-03-21T04:54:58.355Z,100262.25
2023-03-21T04:57:46.845Z,100268.44
2023-03-21T05:00:37.519Z,100264.91
2023-03-21T05:03:28.406Z,100268.97
2023-03-21T05:06:16.977Z,100259.56
2023-03-21T05:09:07.042Z,100258.44
2023-03-21T05:11:57.332Z,100258.50
2023-03-21T05:14:46.110Z,100254.78
2023-03-21T05:17:34.672Z,100261.28
2023-03-21T05:20:23.215Z,100250.56
2023-03-21T05:23:12.192Z,100265.41
2023-03-21T05:26:00.664Z,100259.78
2023-03-21T05:28:51.495Z,100249.47
2023-03-21T05:31:39.942Z,100255.44
2023-03-21T05:34:29.078Z,100257.88
2023-03-21T05:37:17.566Z,100252.06
2023-03-21T05:40:07.635Z,100255.19
2023-03-21T05:42:56.179Z,100247.19
2023-03-21T05:45:48.375Z,100239.16
2023-03-21T05:48:37.314Z,100194.94
2023-03-21T05:51:25.817Z,100260.34
2023-03-21T05:54:16.708Z,100258.69
2023-03-21T05:57:05.648Z,100253.34
2023-03-21T05:59:54.174Z,100253.88
2023-03-21T06:02:44.684Z,100262.19
2023-03-21T06:05:33.375Z,100259.34
2023-03-21T06:08:21.867Z,100256.53
2023-03-21T06:11:13.888Z,100267.03
2023-03-21T06:14:02.386Z,100264.13
2023-03-21T06:16:51.062Z,100265.78
2023-03-21T06:19:41.018Z,100261.81
2023-03-21T06:22:29.534Z,100264.53
2023-03-21T06:25:18.247Z,100272.44
2023-03-21T06:28:06.706Z,100278.50
2023-03-21T06:30:55.332Z,100281.56
2023-03-21T06:33:43.919Z,100280.56
2023-03-21T06:36:33.762Z,100277.25
2023-03-21T06:39:22.514Z,100280.97
2023-03-21T06:42:11.404Z,100290.16
2023-03-21T06:44:59.853Z,100288.84
2023-03-21T06:47:48.345Z,100292.13
2023-03-21T06:50:36.998Z,100274.38
2023-03-21T06:53:28.053Z,100290.28
2023-03-21T06:56:16.936Z,100264.41
2023-03-21T06:59:05.512Z,100200.72
2023-03-21T07:01:54.428Z,100277.78
2023-03-21T07:04:42.890Z,100274.69
2023-03-21T07:07:31.430Z,100276.84
2023-03-21T07:10:21.418Z,100282.41
2023-03-21T07:13:10.026Z,100288.22
2023-03-21T07:15:58.488Z,100282.84
2023-03-21T07:18:47.010Z,100279.13
2023-03-21T07:21:35.766Z,100279.16
2023-03-21T07:24:24.251Z,100283.78
2023-03-21T07:27:14.206Z,100278.03
2023-03-21T07:30:02.728Z,100282.81
2023-03-21T07:32:51.272Z,100275.75
2023-03-21T07:35:40.447Z,100257.28
2023-03-21T07:38:30.882Z,100267.38
2023-03-21T07:41:19.418Z,100265.19
2023-03-21T07:44:09.267Z,100266.28
2023-03-21T07:46:57.808Z,100258.44
2023-03-21T07:49:49.258Z,100274.47
2023-03-21T07:52:38.181Z,100276.47
2023-03-21T07:55:26.672Z,100274.69
2023-03-21T07:58:15.230Z,100273.19
2023-03-21T08:01:05.459Z,100285.91
2023-03-21T08:03:53.976Z,100289.94
2023-03-21T08:06:42.568Z,100284.00
2023-03-21T08:09:31.498Z,100283.78
2023-03-21T08:12:20.033Z,100291.16
2023-03-21T08:15:09.817Z,100284.38
2023-03-21T08:18:01.230Z,100286.22
2023-03-21T08:20:53.122Z,100285.94
2023-03-21T08:23:41.612Z,100287.47
2023-03-21T08:26:32.041Z,100289.72
2023-03-21T08:29:21.493Z,100239.91
2023-03-21T08:32:10.266Z,100289.66
2023-03-21T08:35:01.267Z,100276.47
2023-03-21T08:37:49.801Z,100276.16
2023-03-21T08:40:38.727Z,100284.84
2023-03-21T08:43:27.613Z,100256.34
2023-03-21T08:46:16.432Z,100284.88
2023-03-21T08:49:04.940Z,100280.66
2023-03-21T08:51:57.936Z,100277.41
2023-03-21T08:54:46.440Z,100282.09
2023-03-21T08:57:34.996Z,100286.06
2023-03-21T09:00:24.014Z,100278.09
2023-03-21T09:03:12.527Z,100278.66
2023-03-21T09:06:03.014Z,100266.72
2023-03-21T09:08:53.443Z,100261.78
2023-03-21T09:11:42.082Z,100260.22
2023-03-21T09:14:30.567Z,100270.34
2023-03-21T09:17:21.154Z,100266.38
2023-03-21T09:20:18.562Z,100271.56
2023-03-21T09:23:07.456Z,100269.00
2023-03-21T09:25:57.421Z,100269.00
2023-03-21T09:28:47.426Z,100228.25
2023-03-21T09:31:35.965Z,100270.69
2023-03-21T09:34:24.625Z,100267.31
2023-03-21T09:37:13.757Z,100270.81
2023-03-21T09:40:02.452Z,100268.84
2023-03-21T09:42:59.947Z,100277.03
2023-03-21T09:45:52.612Z,100271.13
2023-03-21T09:48:56.622Z,100282.47
2023-03-21T09:51:48.804Z,100274.25
2023-03-21T09:54:39.387Z,100270.41
2023-03-21T09:57:34.165Z,100270.13
2023-03-21T10:00:29.926Z,100272.88
2023-03-21T10:03:24.314Z,100278.88
2023-03-21T10:06:16.436Z,100270.81
2023-03-21T10:09:07.351Z,100273.16
2023-03-21T10:11:58.498Z,100274.34
2023-03-21T10:14:49.487Z,100272.03
2023-03-21T10:17:43.535Z,100267.22
2023-03-21T10:20:33.413Z,100273.06
2023-03-21T10:23:23.389Z,100250.34
2023-03-21T10:26:14.882Z,100274.28
2023-03-21T10:29:05.800Z,100252.88
2023-03-21T10:31:55.815Z,100262.22
2023-03-21T10:34:48.059Z,100179.28
2023-03-21T10:37:36.587Z,100155.50
2023-03-21T10:40:25.099Z,100257.44
2023-03-21T10:43:21.767Z,100264.56
2023-03-21T10:46:14.188Z,100245.25
2023-03-21T10:49:03.155Z,100235.13
2023-03-21T10:51:55.550Z,100229.72
2023-03-21T10:54:44.151Z,100211.91
2023-03-21T10:57:32.667Z,100233.63
2023-03-21T11:00:23.211Z,100233.63
2023-03-21T11:03:21.245Z,100233.78
2023-03-21T11:06:14.828Z,100213.59
2023-03-21T11:09:09.670Z,100231.59
2023-03-21T11:12:04.403Z,100234.16
2023-03-21T11:14:52.850Z,100219.78
2023-03-21T11:17:41.734Z,100230.34
2023-03-21T11:20:32.130Z,100182.34
2023-03-21T11:23:21.217Z,100223.81
2023-03-21T11:26:12.929Z,100219.00
2023-03-21T11:29:01.969Z,100214.19
2023-03-21T11:31:50.541Z,100217.41
2023-03-21T11:34:46.062Z,100224.47
2023-03-21T11:37:35.911Z,100215.69
2023-03-21T11:40:26.272Z,100206.22
2023-03-21T11:43:29.702Z,100202.13
2023-03-21T11:46:24.228Z,100198.22
2023-03-21T11:49:12.840Z,100193.16
2023-03-21T11:52:07.581Z,100202.94
2023-03-21T11:55:14.428Z,100202.13
2023-03-21T11:58:15.182Z,100188.00
2023-03-21T12:01:13.042Z,100191.44
2023-03-21T12:04:12.188Z,100171.06
2023-03-21T12:07:04.622Z,100174.28
2023-03-21T12:09:57.599Z,100169.34
2023-03-21T12:12:51.728Z,100165.38
2023-03-21T12:15:44.719Z,100154.69
2023-03-21T12:18:50.325Z,100163.78
2023-03-21T12:21:44.803Z,100157.09
2023-03-21T12:24:40.175Z,100150.03
2023-03-21T12:27:38.291Z,100139.50
2023-03-21T12:30:34.778Z,100145.47
2023-03-21T12:33:33.997Z,100135.47
2023-03-21T12:36:36.997Z,100127.50
2023-03-21T12:39:29.716Z,100124.97
2023-03-21T12:42:43.885Z,100124.66
2023-03-21T12:45:46.218Z,100112.16
2023-03-21T12:48:42.024Z,100120.78
2023-03-21T12:51:34.178Z,100108.81
2023-03-21T12:54:27.423Z,100113.72
2023-03-21T12:57:18.885Z,100107.16
2023-03-21T13:00:13.421Z,100100.19
2023-03-21T13:03:05.610Z,100088.84
2023-03-21T13:05:57.776Z,100096.25
2023-03-21T13:08:49.844Z,100096.16
2023-03-21T13:11:38.767Z,100095.50
2023-03-21T13:14:29.332Z,100087.69
2023-03-21T13:17:24.129Z,100088.84
2023-03-21T13:20:20.257Z,100082.25
2023-03-21T13:23:09.299Z,100091.13
2023-03-21T13:25:59.153Z,100081.00
2023-03-21T13:28:49.289Z,100069.00
2023-03-21T13:31:50.930Z,100080.88
2023-03-21T13:34:41.273Z,100071.91
2023-03-21T13:37:32.099Z,100075.50
2023-03-21T13:40:26.231Z,100064.25
2023-03-21T13:43:40.663Z,99999.19
2023-03-21T13:46:53.310Z,100046.38
2023-03-21T13:49:42.620Z,100060.22
2023-03-21T13:52:31.098Z,100062.91
2023-03-21T13:55:21.964Z,100057.09
2023-03-21T13:58:33.866Z,100050.97
2023-03-21T14:01:28.755Z,100049.97
2023-03-21T14:04:19.464Z,100046.63
2023-03-21T14:07:12.297Z,100037.78
2023-03-21T14:10:04.274Z,100036.94
2023-03-21T14:12:54.982Z,100033.94
2023-03-21T14:15:55.037Z,100034.44
2023-03-21T14:18:54.186Z,100029.31
2023-03-21T14:21:50.315Z,100020.13
2023-03-21T14:24:40.099Z,100032.34
2023-03-21T14:27:31.563Z,100020.38
2023-03-21T14:30:26.082Z,100027.69
2023-03-21T14:33:18.140Z,100016.72
2023-03-21T14:36:12.116Z,100015.94
2023-03-21T14:39:07.329Z,100017.91
2023-03-21T14:41:57.367Z,100017.06
2023-03-21T14:44:55.581Z,100013.63
2023-03-21T14:47:55.926Z,100003.63
2023-03-21T14:50:47.960Z,100010.63
2023-03-21T14:53:40.587Z,100006.59
2023-03-21T14:56:30.335Z,99956.72
2023-03-21T14:59:22.166Z,100013.63
2023-03-21T15:02:17.389Z,100020.53
2023-03-21T15:05:11.710Z,100007.81
2023-03-21T15:08:01.780Z,100019.09
2023-03-21T15:11:06.883Z,100010.38
2023-03-21T15:13:56.888Z,100011.22
2023-03-21T15:16:45.644Z,100005.69
2023-03-21T15:19:37.000Z,100010.22
2023-03-21T15:22:33.337Z,100007.75
2023-03-21T15:25:25.209Z,99993.09
2023-03-21T15:28:15.689Z,99999.16
2023-03-21T15:31:05.269Z,100003.47
2023-03-21T15:33:55.263Z,100001.69
2023-03-21T15:36:46.336Z,99999.72
2023-03-21T15:39:36.269Z,99993.47
2023-03-21T15:42:29.919Z,99991.84
2023-03-21T15:45:23.006Z,99987.81
2023-03-21T15:48:14.770Z,99968.50
2023-03-21T15:51:05.642Z,99968.63
2023-03-21T15:53:55.137Z,99976.75
2023-03-21T15:56:45.973Z,99974.22
2023-03-21T15:59:36.805Z,99965.63
2023-03-21T16:02:31.292Z,99968.88
2023-03-21T16:05:25.252Z,99963.53
2023-03-21T16:08:24.444Z,99968.16
2023-03-21T16:11:20.260Z,99969.44
2023-03-21T16:14:08.881Z,99971.34
2023-03-21T16:16:59.969Z,99957.22
2023-03-21T16:19:49.807Z,99940.66
2023-03-21T16:22:38.333Z,99943.69
2023-03-21T16:25:27.013Z,99942.06
2023-03-21T16:28:17.475Z,99936.41
2023-03-21T16:31:06.132Z,99953.38
2023-03-21T16:33:54.947Z,99957.63
2023-03-21T16:36:44.853Z,99960.81
2023-03-21T16:39:33.324Z,99969.97
2023-03-21T16:42:21.815Z,99956.13
2023-03-21T16:45:11.796Z,99943.41
2023-03-21T16:48:00.949Z,99942.84
2023-03-21T16:50:49.796Z,99951.38
2023-03-21T16:53:39.895Z,99954.72
2023-03-21T16:56:31.056Z,99955.25
2023-03-21T16:59:19.613Z,99940.94
2023-03-21T17:02:16.400Z,99950.38
2023-03-21T17:05:07.100Z,99952.50
2023-03-21T17:07:56.084Z,99959.44
2023-03-21T17:10:46.788Z,99966.13
2023-03-21T17:13:35.569Z,99972.50
2023-03-21T17:16:27.148Z,99982.16
2023-03-21T17:19:17.829Z,99969.56
2023-03-21T17:22:06.724Z,99983.47
2023-03-21T17:24:55.302Z,99978.50
2023-03-21T17:27:45.754Z,99964.75
2023-03-21T17:30:36.280Z,99961.56
2023-03-21T17:33:24.872Z,99965.94
2023-03-21T17:36:16.088Z,99970.16
2023-03-21T17:39:06.865Z,99963.09
2023-03-21T17:41:56.840Z,99955.16
2023-03-21T17:44:46.741Z,99953.00
2023-03-21T17:47:35.532Z,99876.06
2023-03-21T17:50:26.398Z,99968.78
2023-03-21T17:53:15.021Z,99950.13
2023-03-21T17:56:03.588Z,99965.38
2023-03-21T17:58:52.149Z,99965.25
2023-03-21T18:01:42.568Z,99968.41
2023-03-21T18:04:31.483Z,99962.94
2023-03-21T18:07:38.105Z,99966.56
2023-03-21T18:10:28.774Z,99961.25
2023-03-21T18:13:17.498Z,99960.34
2023-03-21T18:16:06.809Z,99957.97
2023-03-21T18:18:56.755Z,99961.84
2023-03-21T18:21:46.065Z,99966.53
2023-03-21T18:24:34.685Z,99964.75
2023-03-21T18:27:23.251Z,99966.03
2023-03-21T18:30:36.227Z,99968.63
2023-03-21T18:33:25.003Z,99966.63
2023-03-21T18:36:24.026Z,99981.03
2023-03-21T18:39:13.281Z,99981.94
2023-03-21T18:42:03.713Z,99983.22
2023-03-21T18:44:54.442Z,99976.13
2023-03-21T18:47:43.282Z,99972.72
2023-03-21T18:50:32.112Z,99983.13
2023-03-21T18:53:22.480Z,99984.84
2023-03-21T18:56:11.721Z,99985.53
2023-03-21T18:59:03.255Z,99991.25
2023-03-21T19:01:52.091Z,99979.50
2023-03-21T19:04:40.761Z,99980.41
2023-03-21T19:07:29.912Z,99994.09
2023-03-21T19:10:21.843Z,99998.91
2023-03-21T19:13:10.484Z,99974.09
2023-03-21T19:15:59.063Z,99993.25
2023-03-21T19:18:54.955Z,99986.72
2023-03-21T19:21:47.021Z,99989.47
2023-03-21T19:24:35.591Z,99990.38
2023-03-21T19:27:25.798Z,99996.69
2023-03-21T19:30:16.084Z,99987.38
2023-03-21T19:33:05.106Z,99980.06
2023-03-21T19:36:10.693Z,99992.91
2023-03-21T19:38:59.580Z,100000.63
2023-03-21T19:41:48.222Z,99996.53
2023-03-21T19:44:38.373Z,99990.53
2023-03-21T19:47:27.076Z,99988.41
2023-03-21T19:50:47.368Z,99990.34
2023-03-21T19:53:24.515Z,99983.78
2023-03-21T19:56:21.562Z,99949.00
2023-03-21T19:59:12.232Z,99978.03
2023-03-21T20:02:25.034Z,99993.69
2023-03-21T20:05:10.917Z,99984.16
2023-03-21T20:07:59.640Z,99987.22
2023-03-21T20:10:48.171Z,99983.81
2023-03-21T20:13:36.741Z,99982.22
2023-03-21T20:16:25.299Z,99975.03
2023-03-21T20:19:16.186Z,99998.00
2023-03-21T20:22:07.995Z,99999.47
2023-03-21T20:25:08.762Z,100003.63
2023-03-21T20:28:14.697Z,100004.69
2023-03-21T20:31:05.184Z,100003.47
2023-03-21T20:33:53.732Z,100008.44
2023-03-21T20:36:44.104Z,100006.81
2023-03-21T20:39:32.681Z,100015.72
2023-03-21T20:42:21.211Z,100015.09
2023-03-21T20:45:11.899Z,100009.56
2023-03-21T20:48:00.735Z,100012.06
2023-03-21T20:50:51.867Z,100012.28
2023-03-21T20:53:41.868Z,100009.03
2023-03-21T20:56:30.817Z,99993.97
2023-03-21T20:59:26.589Z,100003.06
2023-03-21T21:02:15.983Z,99999.19
2023-03-21T21:05:27.821Z,100005.78
2023-03-21T21:08:18.992Z,100021.50
2023-03-21T21:11:56.906Z,100025.41
2023-03-21T21:14:17.695Z,100017.19
2023-03-21T21:17:23.814Z,99959.09
2023-03-21T21:20:17.475Z,100019.31
2023-03-21T21:23:06.195Z,100017.88
2023-03-21T21:25:55.495Z,100020.97
2023-03-21T21:28:46.755Z,100016.03
2023-03-21T21:31:35.247Z,100021.19
2023-03-21T21:34:24.397Z,100016.84
2023-03-21T21:37:12.946Z,100019.97
2023-03-21T21:40:12.619Z,100012.13
2023-03-21T21:43:03.536Z,100007.75
2023-03-21T21:45:53.933Z,100010.22
2023-03-21T21:48:42.537Z,100008.75
2023-03-21T21:51:34.012Z,100007.09
2023-03-21T21:54:22.522Z,100018.63
2023-03-21T21:57:13.542Z,100009.31
2023-03-21T22:00:06.132Z,100004.53
2023-03-21T22:02:56.120Z,99998.34
2023-03-21T22:05:45.374Z,100005.31
2023-03-21T22:08:33.944Z,99993.19
2023-03-21T22:11:22.372Z,100002.41
2023-03-21T22:14:10.928Z,99953.69
2023-03-21T22:17:00.052Z,100000.94
2023-03-21T22:20:04.325Z,99997.00
2023-03-21T22:22:56.617Z,99995.31
2023-03-21T22:25:50.897Z,99996.09
2023-03-21T22:28:42.149Z,99993.16
2023-03-21T22:31:32.167Z,99997.22
2023-03-21T22:34:21.681Z,99999.31
2023-03-21T22:37:11.549Z,99974.19
2023-03-21T22:40:00.180Z,99999.72
2023-03-21T22:42:48.694Z,99997.22
2023-03-21T22:45:37.265Z,100004.22
2023-03-21T22:48:25.885Z,100000.22
2023-03-21T22:51:14.426Z,100007.66
2023-03-21T22:54:04.350Z,100004.31
2023-03-21T22:56:52.809Z,100017.81
2023-03-21T22:59:41.654Z,100016.84
2023-03-21T23:02:30.327Z,100000.91
2023-03-21T23:05:19.025Z,100000.00
2023-03-21T23:08:07.507Z,100002.81
2023-03-21T23:10:57.431Z,99997.13
2023-03-21T23:13:51.598Z,99996.72
2023-03-21T23:16:47.510Z,99979.16
2023-03-21T23:19:36.070Z,99987.06
2023-03-21T23:22:24.621Z,99993.63
2023-03-21T23:25:13.585Z,99974.47
2023-03-21T23:28:03.518Z,99988.75
2023-03-21T23:30:51.961Z,99981.28
2023-03-21T23:33:40.460Z,99991.06
2023-03-21T23:36:29.420Z,99984.53
2023-03-21T23:39:18.603Z,99988.50
2023-03-21T23:42:07.458Z,99991.38
2023-03-21T23:44:57.288Z,99992.59
2023-03-21T23:47:45.803Z,99990.44
2023-03-21T23:50:34.714Z,99961.59
2023-03-21T23:53:23.289Z,99991.13
2023-03-21T23:56:13.235Z,99984.28
2023-03-21T23:59:01.710Z,99981.84
